sensor_id;sensor_type;location;lat;lon;timestamp;pressure;altitude;pressure_sealevel;temperature;humidity
6198;BME280;3132;42.622;23.328;2023-09-18T00:00:53;93343.50;;;17.14;100.00
6198;BME280;3132;42.622;23.328;2023-09-18T00:03:20;93355.13;;;17.13;100.00
6198;BME280;3132;42.622;23.328;2023-09-18T00:05:49;93351.81;;;17.08;100.00
6198;BME280;3132;42.622;23.328;2023-09-18T00:08:14;93333.47;;;17.03;100.00
6198;BME280;3132;42.622;23.328;2023-09-18T00:10:40;93331.25;;;16.96;100.00
6198;BME280;3132;42.622;23.328;2023-09-18T00:13:06;93315.28;;;17.01;100.00
6198;BME280;3132;42.622;23.328;2023-09-18T00:15:32;93335.91;;;17.21;100.00
6198;BME280;3132;42.622;23.328;2023-09-18T00:17:57;93326.44;;;16.98;100.00
6198;BME280;3132;42.622;23.328;2023-09-18T00:20:22;93337.72;;;16.90;100.00
6198;BME280;3132;42.622;23.328;2023-09-18T00:22:55;93332.69;;;16.80;100.00
6198;BME280;3132;42.622;23.328;2023-09-18T00:25:22;93332.16;;;16.56;100.00
6198;BME280;3132;42.622;23.328;2023-09-18T00:27:47;93333.72;;;16.44;100.00
6198;BME280;3132;42.622;23.328;2023-09-18T00:30:13;93319.63;;;16.26;100.00
6198;BME280;3132;42.622;23.328;2023-09-18T00:32:38;93328.59;;;16.25;100.00
6198;BME280;3132;42.622;23.328;2023-09-18T00:35:04;93343.25;;;16.45;100.00
6198;BME280;3132;42.622;23.328;2023-09-18T00:37:29;93348.78;;;16.43;100.00
6198;BME280;3132;42.622;23.328;2023-09-18T00:39:55;93342.25;;;16.27;100.00
6198;BME280;3132;42.622;23.328;2023-09-18T00:42:20;93338.34;;;16.25;100.00
6198;BME280;3132;42.622;23.328;2023-09-18T00:44:48;93348.31;;;16.28;100.00
6198;BME280;3132;42.622;23.328;2023-09-18T00:47:14;93349.28;;;16.32;100.00
6198;BME280;3132;42.622;23.328;2023-09-18T00:49:41;93343.78;;;16.28;100.00
6198;BME280;3132;42.622;23.328;2023-09-18T00:52:09;93336.13;;;15.91;100.00
6198;BME280;3132;42.622;23.328;2023-09-18T00:54:37;93344.03;;;15.77;100.00
6198;BME280;3132;42.622;23.328;2023-09-18T00:57:03;93352.91;;;15.95;100.00
6198;BME280;3132;42.622;23.328;2023-09-18T00:59:29;93356.78;;;16.11;100.00
6198;BME280;3132;42.622;23.328;2023-09-18T01:01:56;93361.09;;;16.07;100.00
6198;BME280;3132;42.622;23.328;2023-09-18T01:04:22;93358.25;;;16.03;100.00
6198;BME280;3132;42.622;23.328;2023-09-18T01:06:50;93364.72;;;15.84;100.00
6198;BME280;3132;42.622;23.328;2023-09-18T01:09:18;93358.06;;;15.73;100.00
6198;BME280;3132;42.622;23.328;2023-09-18T01:11:50;93357.41;;;15.81;100.00
6198;BME280;3132;42.622;23.328;2023-09-18T01:14:20;93369.69;;;15.85;100.00
6198;BME280;3132;42.622;23.328;2023-09-18T01:16:55;93366.84;;;15.82;100.00
6198;BME280;3132;42.622;23.328;2023-09-18T01:19:37;93368.19;;;15.66;100.00
6198;BME280;3132;42.622;23.328;2023-09-18T01:22:06;93365.75;;;15.83;100.00
6198;BME280;3132;42.622;23.328;2023-09-18T01:24:33;93366.03;;;15.68;100.00
6198;BME280;3132;42.622;23.328;2023-09-18T01:26:59;93361.38;;;15.65;100.00
6198;BME280;3132;42.622;23.328;2023-09-18T01:29:24;93361.94;;;15.62;100.00
6198;BME280;3132;42.622;23.328;2023-09-18T01:31:49;93363.50;;;15.63;100.00
6198;BME280;3132;42.622;23.328;2023-09-18T01:34:18;93364.50;;;15.67;100.00
6198;BME280;3132;42.622;23.328;2023-09-18T01:36:45;93364.50;;;15.67;100.00
6198;BME280;3132;42.622;23.328;2023-09-18T01:39:11;93354.34;;;15.47;100.00
6198;BME280;3132;42.622;23.328;2023-09-18T01:41:38;93355.31;;;15.51;100.00
6198;BME280;3132;42.622;23.328;2023-09-18T01:44:05;93362.91;;;15.52;100.00
6198;BME280;3132;42.622;23.328;2023-09-18T01:46:33;93357.34;;;15.54;100.00
6198;BME280;3132;42.622;23.328;2023-09-18T01:49:02;93359.09;;;15.58;100.00
6198;BME280;3132;42.622;23.328;2023-09-18T01:51:28;93346.91;;;15.49;100.00
6198;BME280;3132;42.622;23.328;2023-09-18T01:53:55;93340.09;;;15.48;100.00
6198;BME280;3132;42.622;23.328;2023-09-18T01:56:20;93356.84;;;15.52;100.00
6198;BME280;3132;42.622;23.328;2023-09-18T01:58:45;93356.16;;;15.46;100.00
6198;BME280;3132;42.622;23.328;2023-09-18T02:01:11;93351.91;;;15.32;100.00
6198;BME280;3132;42.622;23.328;2023-09-18T02:03:36;93358.94;;;15.36;100.00
6198;BME280;3132;42.622;23.328;2023-09-18T02:06:07;93357.25;;;15.59;100.00
6198;BME280;3132;42.622;23.328;2023-09-18T02:08:33;93364.59;;;15.62;100.00
6198;BME280;3132;42.622;23.328;2023-09-18T02:10:59;93351.41;;;15.62;100.00
6198;BME280;3132;42.622;23.328;2023-09-18T02:13:24;93349.38;;;15.59;100.00
6198;BME280;3132;42.622;23.328;2023-09-18T02:15:49;93370.53;;;15.67;100.00
6198;BME280;3132;42.622;23.328;2023-09-18T02:18:15;93366.84;;;15.68;100.00
6198;BME280;3132;42.622;23.328;2023-09-18T02:20:41;93365.75;;;15.56;100.00
6198;BME280;3132;42.622;23.328;2023-09-18T02:23:06;93367.28;;;15.57;100.00
6198;BME280;3132;42.622;23.328;2023-09-18T02:25:32;93348.56;;;15.45;100.00
6198;BME280;3132;42.622;23.328;2023-09-18T02:27:57;93367.78;;;15.59;100.00
6198;BME280;3132;42.622;23.328;2023-09-18T02:30:22;93370.34;;;15.64;100.00
6198;BME280;3132;42.622;23.328;2023-09-18T02:32:48;93370.13;;;15.60;100.00
6198;BME280;3132;42.622;23.328;2023-09-18T02:35:13;93377.06;;;15.56;100.00
6198;BME280;3132;42.622;23.328;2023-09-18T02:37:39;93376.53;;;15.41;100.00
6198;BME280;3132;42.622;23.328;2023-09-18T02:40:05;93368.16;;;15.39;100.00
6198;BME280;3132;42.622;23.328;2023-09-18T02:42:30;93367.78;;;15.45;100.00
6198;BME280;3132;42.622;23.328;2023-09-18T02:44:55;93361.81;;;15.40;100.00
6198;BME280;3132;42.622;23.328;2023-09-18T02:47:21;93362.22;;;15.47;100.00
6198;BME280;3132;42.622;23.328;2023-09-18T02:49:46;93356.59;;;15.35;100.00
6198;BME280;3132;42.622;23.328;2023-09-18T02:52:12;93361.38;;;15.33;100.00
6198;BME280;3132;42.622;23.328;2023-09-18T02:54:37;93359.34;;;15.30;100.00
6198;BME280;3132;42.622;23.328;2023-09-18T02:57:02;93366.22;;;15.26;100.00
6198;BME280;3132;42.622;23.328;2023-09-18T02:59:28;93374.69;;;15.23;100.00
6198;BME280;3132;42.622;23.328;2023-09-18T03:01:53;93364.78;;;15.33;100.00
6198;BME280;3132;42.622;23.328;2023-09-18T03:04:19;93369.44;;;15.23;100.00
6198;BME280;3132;42.622;23.328;2023-09-18T03:06:44;93364.97;;;15.23;100.00
6198;BME280;3132;42.622;23.328;2023-09-18T03:09:10;93373.31;;;15.25;100.00
6198;BME280;3132;42.622;23.328;2023-09-18T03:11:35;93370.59;;;15.17;100.00
6198;BME280;3132;42.622;23.328;2023-09-18T03:14:01;93348.28;;;15.14;100.00
6198;BME280;3132;42.622;23.328;2023-09-18T03:16:26;93365.56;;;15.34;100.00
6198;BME280;3132;42.622;23.328;2023-09-18T03:18:52;93353.50;;;15.33;100.00
6198;BME280;3132;42.622;23.328;2023-09-18T03:21:17;93352.13;;;15.35;100.00
6198;BME280;3132;42.622;23.328;2023-09-18T03:23:42;93356.78;;;15.25;100.00
6198;BME280;3132;42.622;23.328;2023-09-18T03:26:08;93359.34;;;15.30;100.00
6198;BME280;3132;42.622;23.328;2023-09-18T03:28:33;93350.34;;;15.31;100.00
6198;BME280;3132;42.622;23.328;2023-09-18T03:30:58;93351.50;;;15.25;100.00
6198;BME280;3132;42.622;23.328;2023-09-18T03:33:24;93352.00;;;15.27;100.00
6198;BME280;3132;42.622;23.328;2023-09-18T03:35:51;93335.41;;;15.13;100.00
6198;BME280;3132;42.622;23.328;2023-09-18T03:38:19;93297.97;;;15.02;100.00
6198;BME280;3132;42.622;23.328;2023-09-18T03:40:45;93338.53;;;15.47;100.00
6198;BME280;3132;42.622;23.328;2023-09-18T03:43:11;93337.25;;;15.44;100.00
6198;BME280;3132;42.622;23.328;2023-09-18T03:45:37;93326.44;;;15.46;100.00
6198;BME280;3132;42.622;23.328;2023-09-18T03:48:03;93332.31;;;15.70;100.00
6198;BME280;3132;42.622;23.328;2023-09-18T03:50:28;93329.69;;;15.70;100.00
6198;BME280;3132;42.622;23.328;2023-09-18T03:52:53;93334.47;;;15.68;100.00
6198;BME280;3132;42.622;23.328;2023-09-18T03:55:19;93332.22;;;15.75;100.00
6198;BME280;3132;42.622;23.328;2023-09-18T03:57:44;93310.47;;;15.69;100.00
6198;BME280;3132;42.622;23.328;2023-09-18T04:00:12;93318.47;;;15.78;100.00
6198;BME280;3132;42.622;23.328;2023-09-18T04:02:38;93332.13;;;15.80;100.00
6198;BME280;3132;42.622;23.328;2023-09-18T04:05:04;93339.13;;;15.57;100.00
6198;BME280;3132;42.622;23.328;2023-09-18T04:07:30;93336.22;;;15.59;100.00
6198;BME280;3132;42.622;23.328;2023-09-18T04:09:56;93342.63;;;15.53;100.00
6198;BME280;3132;42.622;23.328;2023-09-18T04:12:21;93339.91;;;15.26;100.00
6198;BME280;3132;42.622;23.328;2023-09-18T04:14:47;93329.69;;;15.24;100.00
6198;BME280;3132;42.622;23.328;2023-09-18T04:17:12;93341.19;;;15.28;100.00
6198;BME280;3132;42.622;23.328;2023-09-18T04:19:37;93345.97;;;15.26;100.00
6198;BME280;3132;42.622;23.328;2023-09-18T04:22:03;93349.66;;;15.44;100.00
6198;BME280;3132;42.622;23.328;2023-09-18T04:24:29;93352.47;;;15.29;100.00
6198;BME280;3132;42.622;23.328;2023-09-18T04:26:54;93359.69;;;15.23;100.00
6198;BME280;3132;42.622;23.328;2023-09-18T04:29:19;93362.88;;;15.39;100.00
6198;BME280;3132;42.622;23.328;2023-09-18T04:31:45;93354.69;;;15.40;100.00
6198;BME280;3132;42.622;23.328;2023-09-18T04:34:11;93363.28;;;15.46;100.00
6198;BME280;3132;42.622;23.328;2023-09-18T04:36:36;93366.53;;;15.56;100.00
6198;BME280;3132;42.622;23.328;2023-09-18T04:39:04;93365.97;;;15.59;100.00
6198;BME280;3132;42.622;23.328;2023-09-18T04:41:30;93366.53;;;15.70;100.00
6198;BME280;3132;42.622;23.328;2023-09-18T04:43:55;93372.59;;;15.84;100.00
6198;BME280;3132;42.622;23.328;2023-09-18T04:46:21;93366.09;;;15.95;100.00
6198;BME280;3132;42.622;23.328;2023-09-18T04:48:46;93364.13;;;15.87;100.00
6198;BME280;3132;42.622;23.328;2023-09-18T04:51:12;93354.25;;;15.92;100.00
6198;BME280;3132;42.622;23.328;2023-09-18T04:53:38;93364.28;;;15.77;100.00
6198;BME280;3132;42.622;23.328;2023-09-18T04:56:03;93363.81;;;16.02;100.00
6198;BME280;3132;42.622;23.328;2023-09-18T04:58:29;93366.44;;;16.16;100.00
6198;BME280;3132;42.622;23.328;2023-09-18T05:00:58;93344.34;;;16.03;100.00
6198;BME280;3132;42.622;23.328;2023-09-18T05:03:24;93355.94;;;16.02;100.00
6198;BME280;3132;42.622;23.328;2023-09-18T05:05:52;93368.59;;;16.27;100.00
6198;BME280;3132;42.622;23.328;2023-09-18T05:08:17;93367.81;;;16.27;100.00
6198;BME280;3132;42.622;23.328;2023-09-18T05:10:43;93369.78;;;16.21;100.00
6198;BME280;3132;42.622;23.328;2023-09-18T05:13:09;93364.72;;;15.97;100.00
6198;BME280;3132;42.622;23.328;2023-09-18T05:15:34;93366.25;;;16.26;100.00
6198;BME280;3132;42.622;23.328;2023-09-18T05:18:00;93364.09;;;16.14;100.00
6198;BME280;3132;42.622;23.328;2023-09-18T05:20:30;93366.72;;;16.41;100.00
6198;BME280;3132;42.622;23.328;2023-09-18T05:22:59;93380.81;;;16.50;100.00
6198;BME280;3132;42.622;23.328;2023-09-18T05:25:26;93376.97;;;16.70;100.00
6198;BME280;3132;42.622;23.328;2023-09-18T05:27:57;93373.06;;;16.67;100.00
6198;BME280;3132;42.622;23.328;2023-09-18T05:30:29;93378.31;;;16.67;100.00
6198;BME280;3132;42.622;23.328;2023-09-18T05:33:00;93379.59;;;16.70;100.00
6198;BME280;3132;42.622;23.328;2023-09-18T05:38:04;93384.25;;;16.86;100.00
6198;BME280;3132;42.622;23.328;2023-09-18T05:40:30;93396.72;;;16.94;100.00
6198;BME280;3132;42.622;23.328;2023-09-18T05:42:56;93389.91;;;16.93;100.00
6198;BME280;3132;42.622;23.328;2023-09-18T05:45:22;93391.84;;;17.45;100.00
6198;BME280;3132;42.622;23.328;2023-09-18T05:47:48;93394.19;;;17.69;100.00
6198;BME280;3132;42.622;23.328;2023-09-18T05:50:15;93392.84;;;17.80;100.00
6198;BME280;3132;42.622;23.328;2023-09-18T05:52:45;93397.53;;;17.92;100.00
6198;BME280;3132;42.622;23.328;2023-09-18T05:55:11;93401.06;;;18.09;100.00
6198;BME280;3132;42.622;23.328;2023-09-18T05:57:36;93404.75;;;18.00;100.00
6198;BME280;3132;42.622;23.328;2023-09-18T06:00:02;93395.34;;;18.16;100.00
6198;BME280;3132;42.622;23.328;2023-09-18T06:02:28;93405.91;;;18.16;100.00
6198;BME280;3132;42.622;23.328;2023-09-18T06:04:55;93407.28;;;17.83;100.00
6198;BME280;3132;42.622;23.328;2023-09-18T06:07:23;93390.88;;;18.33;100.00
6198;BME280;3132;42.622;23.328;2023-09-18T06:09:49;93406.09;;;18.67;96.25
6198;BME280;3132;42.622;23.328;2023-09-18T06:12:14;93404.03;;;17.86;100.00
6198;BME280;3132;42.622;23.328;2023-09-18T06:14:40;93391.66;;;17.95;100.00
6198;BME280;3132;42.622;23.328;2023-09-18T06:17:05;93392.97;;;18.45;99.20
6198;BME280;3132;42.622;23.328;2023-09-18T06:19:31;93410.53;;;18.41;98.47
6198;BME280;3132;42.622;23.328;2023-09-18T06:21:58;93405.25;;;18.41;98.64
6198;BME280;3132;42.622;23.328;2023-09-18T06:24:23;93391.59;;;18.17;100.00
6198;BME280;3132;42.622;23.328;2023-09-18T06:26:48;93407.91;;;18.41;99.90
6198;BME280;3132;42.622;23.328;2023-09-18T06:29:16;93403.88;;;18.13;100.00
6198;BME280;3132;42.622;23.328;2023-09-18T06:31:41;93398.72;;;18.47;99.67
6198;BME280;3132;42.622;23.328;2023-09-18T06:34:06;93410.94;;;18.82;97.98
6198;BME280;3132;42.622;23.328;2023-09-18T06:36:32;93415.25;;;18.69;98.05
6198;BME280;3132;42.622;23.328;2023-09-18T06:38:57;93417.50;;;18.84;98.10
6198;BME280;3132;42.622;23.328;2023-09-18T06:41:23;93406.41;;;18.65;99.14
6198;BME280;3132;42.622;23.328;2023-09-18T06:43:48;93403.81;;;18.91;96.88
6198;BME280;3132;42.622;23.328;2023-09-18T06:46:14;93408.16;;;18.87;96.28
6198;BME280;3132;42.622;23.328;2023-09-18T06:48:39;93398.97;;;19.10;96.13
6198;BME280;3132;42.622;23.328;2023-09-18T06:51:04;93403.66;;;19.47;94.44
6198;BME280;3132;42.622;23.328;2023-09-18T06:53:31;93412.97;;;19.87;90.45
6198;BME280;3132;42.622;23.328;2023-09-18T06:55:57;93401.72;;;19.90;89.72
6198;BME280;3132;42.622;23.328;2023-09-18T06:58:22;93407.88;;;19.48;92.65
6198;BME280;3132;42.622;23.328;2023-09-18T07:00:47;93404.25;;;19.61;91.22
6198;BME280;3132;42.622;23.328;2023-09-18T07:03:15;93412.16;;;19.95;89.01
6198;BME280;3132;42.622;23.328;2023-09-18T07:05:41;93401.56;;;19.78;91.23
6198;BME280;3132;42.622;23.328;2023-09-18T07:08:08;93415.72;;;19.99;88.16
6198;BME280;3132;42.622;23.328;2023-09-18T07:10:37;93408.75;;;19.86;90.04
6198;BME280;3132;42.622;23.328;2023-09-18T07:13:03;93413.41;;;19.89;90.23
6198;BME280;3132;42.622;23.328;2023-09-18T07:15:28;93421.25;;;20.32;88.29
6198;BME280;3132;42.622;23.328;2023-09-18T07:17:54;93414.19;;;20.44;83.62
6198;BME280;3132;42.622;23.328;2023-09-18T07:20:20;93408.66;;;20.20;84.96
6198;BME280;3132;42.622;23.328;2023-09-18T07:22:48;93422.53;;;20.26;85.37
6198;BME280;3132;42.622;23.328;2023-09-18T07:25:14;93415.06;;;20.19;85.75
6198;BME280;3132;42.622;23.328;2023-09-18T07:27:39;93417.81;;;20.40;85.59
6198;BME280;3132;42.622;23.328;2023-09-18T07:30:12;93424.81;;;20.44;85.08
6198;BME280;3132;42.622;23.328;2023-09-18T07:32:41;93409.13;;;20.22;85.86
6198;BME280;3132;42.622;23.328;2023-09-18T07:35:08;93431.06;;;20.40;85.96
6198;BME280;3132;42.622;23.328;2023-09-18T07:37:33;93426.78;;;20.56;83.56
6198;BME280;3132;42.622;23.328;2023-09-18T07:40:00;93427.69;;;20.60;83.93
6198;BME280;3132;42.622;23.328;2023-09-18T07:42:25;93428.16;;;20.62;83.71
6198;BME280;3132;42.622;23.328;2023-09-18T07:44:51;93425.53;;;20.53;83.43
6198;BME280;3132;42.622;23.328;2023-09-18T07:47:16;93419.25;;;20.66;83.78
6198;BME280;3132;42.622;23.328;2023-09-18T07:49:42;93423.47;;;20.88;83.13
6198;BME280;3132;42.622;23.328;2023-09-18T07:52:07;93421.28;;;20.90;81.64
6198;BME280;3132;42.622;23.328;2023-09-18T07:54:33;93423.47;;;20.88;82.06
6198;BME280;3132;42.622;23.328;2023-09-18T07:56:58;93423.94;;;20.90;82.55
6198;BME280;3132;42.622;23.328;2023-09-18T07:59:25;93422.28;;;20.77;81.38
6198;BME280;3132;42.622;23.328;2023-09-18T08:01:51;93418.50;;;20.57;82.42
6198;BME280;3132;42.622;23.328;2023-09-18T08:04:16;93418.31;;;20.62;82.02
6198;BME280;3132;42.622;23.328;2023-09-18T08:06:42;93376.66;;;20.25;82.57
6198;BME280;3132;42.622;23.328;2023-09-18T08:09:07;93415.66;;;20.62;83.93
6198;BME280;3132;42.622;23.328;2023-09-18T08:11:35;93397.19;;;20.75;82.61
6198;BME280;3132;42.622;23.328;2023-09-18T08:14:01;93416.56;;;21.04;80.70
6198;BME280;3132;42.622;23.328;2023-09-18T08:16:28;93415.63;;;21.00;80.05
6198;BME280;3132;42.622;23.328;2023-09-18T08:18:54;93418.63;;;21.19;79.92
6198;BME280;3132;42.622;23.328;2023-09-18T08:21:21;93416.78;;;21.11;81.17
6198;BME280;3132;42.622;23.328;2023-09-18T08:23:48;93416.44;;;21.21;80.70
6198;BME280;3132;42.622;23.328;2023-09-18T08:26:13;93405.47;;;21.23;79.50
6198;BME280;3132;42.622;23.328;2023-09-18T08:28:39;93412.59;;;21.31;79.40
6198;BME280;3132;42.622;23.328;2023-09-18T08:31:09;93409.72;;;21.36;79.17
6198;BME280;3132;42.622;23.328;2023-09-18T08:33:34;93407.78;;;21.45;78.81
6198;BME280;3132;42.622;23.328;2023-09-18T08:36:01;93413.56;;;21.26;78.63
6198;BME280;3132;42.622;23.328;2023-09-18T08:38:27;93414.19;;;21.44;77.24
6198;BME280;3132;42.622;23.328;2023-09-18T08:40:54;93408.50;;;21.33;77.18
6198;BME280;3132;42.622;23.328;2023-09-18T08:43:21;93405.75;;;21.62;76.43
6198;BME280;3132;42.622;23.328;2023-09-18T08:45:51;93398.75;;;21.58;74.83
6198;BME280;3132;42.622;23.328;2023-09-18T08:48:17;93401.22;;;21.63;75.46
6198;BME280;3132;42.622;23.328;2023-09-18T08:50:44;93397.97;;;21.78;77.17
6198;BME280;3132;42.622;23.328;2023-09-18T08:53:10;93398.69;;;21.99;73.17
6198;BME280;3132;42.622;23.328;2023-09-18T08:55:35;93393.91;;;21.92;73.76
6198;BME280;3132;42.622;23.328;2023-09-18T08:58:01;93398.50;;;22.16;70.84
6198;BME280;3132;42.622;23.328;2023-09-18T09:00:26;93399.59;;;22.03;72.14
6198;BME280;3132;42.622;23.328;2023-09-18T09:02:52;93396.47;;;22.01;73.77
6198;BME280;3132;42.622;23.328;2023-09-18T09:05:20;93387.19;;;22.07;72.27
6198;BME280;3132;42.622;23.328;2023-09-18T09:07:46;93395.13;;;21.95;73.39
6198;BME280;3132;42.622;23.328;2023-09-18T09:10:11;93399.38;;;21.96;73.71
6198;BME280;3132;42.622;23.328;2023-09-18T09:12:57;93394.72;;;21.93;74.26
6198;BME280;3132;42.622;23.328;2023-09-18T09:15:34;93394.97;;;22.24;70.62
6198;BME280;3132;42.622;23.328;2023-09-18T09:18:11;93400.97;;;22.33;70.95
6198;BME280;3132;42.622;23.328;2023-09-18T09:20:37;93404.41;;;22.34;69.89
6198;BME280;3132;42.622;23.328;2023-09-18T09:23:03;93386.31;;;22.15;69.35
6198;BME280;3132;42.622;23.328;2023-09-18T09:25:31;93400.06;;;22.29;68.46
6198;BME280;3132;42.622;23.328;2023-09-18T09:27:58;93397.88;;;22.31;68.78
6198;BME280;3132;42.622;23.328;2023-09-18T09:30:25;93381.75;;;22.03;70.19
6198;BME280;3132;42.622;23.328;2023-09-18T09:32:53;93386.47;;;22.43;67.50
6198;BME280;3132;42.622;23.328;2023-09-18T09:37:49;93378.72;;;22.74;65.11
6198;BME280;3132;42.622;23.328;2023-09-18T09:40:19;93376.28;;;22.57;65.91
6198;BME280;3132;42.622;23.328;2023-09-18T09:42:45;93374.06;;;22.71;66.18
6198;BME280;3132;42.622;23.328;2023-09-18T09:45:13;93385.13;;;22.97;64.37
6198;BME280;3132;42.622;23.328;2023-09-18T09:47:40;93374.16;;;22.86;66.90
6198;BME280;3132;42.622;23.328;2023-09-18T09:50:14;93379.53;;;23.14;65.14
6198;BME280;3132;42.622;23.328;2023-09-18T09:52:46;93371.78;;;23.09;65.62
6198;BME280;3132;42.622;23.328;2023-09-18T09:55:38;93380.50;;;23.21;61.02
6198;BME280;3132;42.622;23.328;2023-09-18T09:58:06;93361.84;;;23.33;61.39
6198;BME280;3132;42.622;23.328;2023-09-18T10:00:35;93370.72;;;23.37;59.80
6198;BME280;3132;42.622;23.328;2023-09-18T10:03:09;93368.63;;;23.31;60.72
6198;BME280;3132;42.622;23.328;2023-09-18T10:05:39;93369.13;;;23.48;58.11
6198;BME280;3132;42.622;23.328;2023-09-18T10:08:08;93363.13;;;23.51;58.03
6198;BME280;3132;42.622;23.328;2023-09-18T10:10:41;93369.03;;;23.45;59.93
6198;BME280;3132;42.622;23.328;2023-09-18T10:15:56;93365.66;;;23.08;60.30
6198;BME280;3132;42.622;23.328;2023-09-18T10:18:39;93366.13;;;22.98;61.51
6198;BME280;3132;42.622;23.328;2023-09-18T10:23:53;93357.69;;;22.96;60.29
6198;BME280;3132;42.622;23.328;2023-09-18T10:26:23;93337.75;;;22.90;62.28
6198;BME280;3132;42.622;23.328;2023-09-18T10:28:55;93351.63;;;23.23;61.94
6198;BME280;3132;42.622;23.328;2023-09-18T10:31:26;93344.56;;;23.15;61.31
6198;BME280;3132;42.622;23.328;2023-09-18T10:33:55;93351.09;;;23.30;61.36
6198;BME280;3132;42.622;23.328;2023-09-18T10:36:23;93342.56;;;23.12;63.33
6198;BME280;3132;42.622;23.328;2023-09-18T10:38:50;93337.88;;;23.21;61.40
6198;BME280;3132;42.622;23.328;2023-09-18T10:41:19;93339.94;;;23.40;60.80
6198;BME280;3132;42.622;23.328;2023-09-18T10:43:45;93334.22;;;23.26;61.99
6198;BME280;3132;42.622;23.328;2023-09-18T10:46:12;93324.38;;;23.14;62.22
6198;BME280;3132;42.622;23.328;2023-09-18T10:48:43;93327.84;;;23.42;61.16
6198;BME280;3132;42.622;23.328;2023-09-18T10:51:10;93320.53;;;23.55;60.97
6198;BME280;3132;42.622;23.328;2023-09-18T10:53:36;93318.31;;;23.57;59.12
6198;BME280;3132;42.622;23.328;2023-09-18T10:56:02;93324.53;;;23.61;60.29
6198;BME280;3132;42.622;23.328;2023-09-18T10:58:29;93322.06;;;23.40;61.63
6198;BME280;3132;42.622;23.328;2023-09-18T11:00:55;93323.69;;;23.72;59.65
6198;BME280;3132;42.622;23.328;2023-09-18T11:03:23;93317.16;;;23.70;59.72
6198;BME280;3132;42.622;23.328;2023-09-18T11:06:02;93323.44;;;23.93;57.49
6198;BME280;3132;42.622;23.328;2023-09-18T11:08:43;93314.13;;;23.71;58.85
6198;BME280;3132;42.622;23.328;2023-09-18T11:11:10;93312.28;;;23.88;57.62
6198;BME280;3132;42.622;23.328;2023-09-18T11:13:51;93310.25;;;23.85;57.14
6198;BME280;3132;42.622;23.328;2023-09-18T11:21:33;93296.88;;;23.53;59.28
6198;BME280;3132;42.622;23.328;2023-09-18T11:26:28;93304.78;;;23.34;59.04
6198;BME280;3132;42.622;23.328;2023-09-18T11:28:54;93299.47;;;23.50;59.31
6198;BME280;3132;42.622;23.328;2023-09-18T11:31:20;93294.66;;;23.55;59.80
6198;BME280;3132;42.622;23.328;2023-09-18T11:33:47;93288.16;;;23.84;58.61
6198;BME280;3132;42.622;23.328;2023-09-18T11:36:15;93294.09;;;23.93;58.28
6198;BME280;3132;42.622;23.328;2023-09-18T11:39:00;93287.16;;;24.20;56.75
6198;BME280;3132;42.622;23.328;2023-09-18T11:41:30;93267.78;;;23.92;57.86
6198;BME280;3132;42.622;23.328;2023-09-18T11:46:50;93283.28;;;24.17;56.61
6198;BME280;3132;42.622;23.328;2023-09-18T11:49:24;93271.47;;;24.34;56.49
6198;BME280;3132;42.622;23.328;2023-09-18T11:51:52;93272.53;;;24.64;55.87
6198;BME280;3132;42.622;23.328;2023-09-18T11:54:19;93263.28;;;24.77;53.50
6198;BME280;3132;42.622;23.328;2023-09-18T11:56:44;93255.84;;;24.86;52.84
6198;BME280;3132;42.622;23.328;2023-09-18T11:59:10;93262.94;;;24.97;54.04
6198;BME280;3132;42.622;23.328;2023-09-18T12:01:37;93269.00;;;24.94;54.46
6198;BME280;3132;42.622;23.328;2023-09-18T12:04:06;93265.28;;;25.18;52.82
6198;BME280;3132;42.622;23.328;2023-09-18T12:06:34;93262.06;;;25.09;51.18
6198;BME280;3132;42.622;23.328;2023-09-18T12:08:59;93264.19;;;24.84;52.26
6198;BME280;3132;42.622;23.328;2023-09-18T12:11:25;93259.28;;;24.52;52.62
6198;BME280;3132;42.622;23.328;2023-09-18T12:13:51;93265.63;;;24.13;54.37
6198;BME280;3132;42.622;23.328;2023-09-18T12:16:17;93266.75;;;23.96;55.62
6198;BME280;3132;42.622;23.328;2023-09-18T12:18:50;93264.56;;;23.86;55.17
6198;BME280;3132;42.622;23.328;2023-09-18T12:21:16;93252.59;;;23.49;57.34
6198;BME280;3132;42.622;23.328;2023-09-18T12:23:44;93251.91;;;23.67;56.09
6198;BME280;3132;42.622;23.328;2023-09-18T12:26:12;93249.69;;;23.85;55.62
6198;BME280;3132;42.622;23.328;2023-09-18T12:28:47;93250.41;;;23.98;55.63
6198;BME280;3132;42.622;23.328;2023-09-18T12:31:14;93242.03;;;23.84;55.33
6198;BME280;3132;42.622;23.328;2023-09-18T12:33:42;93248.91;;;23.69;57.32
6198;BME280;3132;42.622;23.328;2023-09-18T12:36:09;93249.00;;;23.72;58.41
6198;BME280;3132;42.622;23.328;2023-09-18T12:38:36;93246.78;;;23.59;58.81
6198;BME280;3132;42.622;23.328;2023-09-18T12:41:03;93248.91;;;23.53;59.52
6198;BME280;3132;42.622;23.328;2023-09-18T12:43:39;93236.44;;;23.14;61.53
6198;BME280;3132;42.622;23.328;2023-09-18T12:46:06;93244.00;;;23.12;61.82
6198;BME280;3132;42.622;23.328;2023-09-18T12:48:37;93247.47;;;23.01;62.34
6198;BME280;3132;42.622;23.328;2023-09-18T12:51:06;93238.47;;;22.78;62.52
6198;BME280;3132;42.622;23.328;2023-09-18T12:53:32;93207.91;;;22.48;63.03
6198;BME280;3132;42.622;23.328;2023-09-18T12:56:12;93243.13;;;22.81;63.51
6198;BME280;3132;42.622;23.328;2023-09-18T12:58:41;93238.34;;;22.74;65.92
6198;BME280;3132;42.622;23.328;2023-09-18T13:01:09;93246.69;;;22.73;64.44
6198;BME280;3132;42.622;23.328;2023-09-18T13:03:42;93231.03;;;22.83;63.83
6198;BME280;3132;42.622;23.328;2023-09-18T13:06:09;93229.56;;;23.13;63.34
6198;BME280;3132;42.622;23.328;2023-09-18T13:08:35;93234.28;;;23.47;61.75
6198;BME280;3132;42.622;23.328;2023-09-18T13:11:01;93230.88;;;23.62;61.11
6198;BME280;3132;42.622;23.328;2023-09-18T13:13:31;93228.72;;;23.68;61.04
6198;BME280;3132;42.622;23.328;2023-09-18T13:15:58;93234.47;;;23.86;60.66
6198;BME280;3132;42.622;23.328;2023-09-18T13:18:25;93230.25;;;23.85;60.29
6198;BME280;3132;42.622;23.328;2023-09-18T13:20:51;93227.41;;;23.77;60.48
6198;BME280;3132;42.622;23.328;2023-09-18T13:23:16;93228.09;;;23.74;59.99
6198;BME280;3132;42.622;23.328;2023-09-18T13:25:43;93217.00;;;23.57;59.89